createdAt,value
2017-10-24T00:00:02.185Z,99.90
2017-10-24T00:03:12.100Z,99.90
2017-10-24T00:06:16.719Z,99.90
2017-10-24T00:09:21.433Z,99.90
2017-10-24T00:12:26.031Z,99.90
2017-10-24T00:15:41.953Z,99.90
2017-10-24T00:18:53.559Z,99.90
2017-10-24T00:22:12.440Z,99.90
2017-10-24T00:25:17.194Z,99.90
2017-10-24T00:28:41.051Z,99.90
2017-10-24T00:31:46.340Z,99.90
2017-10-24T00:34:57.185Z,99.90
2017-10-24T00:38:01.898Z,99.90
2017-10-24T00:41:07.709Z,99.90
2017-10-24T00:44:13.325Z,99.90
2017-10-24T00:47:20.072Z,99.90
2017-10-24T00:50:31.636Z,99.90
2017-10-24T00:53:39.323Z,99.90
2017-10-24T00:56:45.868Z,99.90
2017-10-24T00:59:50.789Z,99.90
2017-10-24T01:02:56.440Z,99.90
2017-10-24T01:06:02.199Z,99.90
2017-10-24T01:09:14.905Z,99.90
2017-10-24T01:12:20.525Z,99.90
2017-10-24T01:15:26.280Z,99.90
2017-10-24T01:18:33.821Z,99.90
2017-10-24T01:25:18.400Z,99.90
2017-10-24T01:28:27.145Z,99.90
2017-10-24T01:31:32.756Z,99.90
2017-10-24T01:34:40.368Z,99.90
2017-10-24T01:37:52.052Z,99.90
2017-10-24T01:41:01.681Z,99.90
2017-10-24T01:44:09.479Z,99.90
2017-10-24T01:47:21.180Z,99.90
2017-10-24T01:50:45.099Z,99.90
2017-10-24T01:54:07.765Z,99.90
2017-10-24T01:57:21.463Z,99.90
2017-10-24T02:00:37.221Z,99.90
2017-10-24T02:03:45.821Z,99.90
2017-10-24T02:07:00.704Z,99.90
2017-10-24T02:10:06.236Z,99.90
2017-10-24T02:16:44.781Z,99.90
2017-10-24T02:19:50.405Z,99.90
2017-10-24T02:22:58.033Z,99.90
2017-10-24T02:26:03.687Z,99.90
2017-10-24T02:29:08.321Z,99.90
2017-10-24T02:32:25.318Z,99.90
2017-10-24T02:35:37.104Z,99.90
2017-10-24T02:38:45.685Z,99.90
2017-10-24T02:41:51.213Z,99.90
2017-10-24T02:45:02.868Z,99.90
2017-10-24T02:48:08.659Z,99.90
2017-10-24T02:51:15.360Z,99.90
2017-10-24T02:54:21.151Z,99.90
2017-10-24T02:57:32.808Z,99.90
2017-10-24T03:00:45.779Z,99.90
2017-10-24T03:03:57.348Z,99.90
2017-10-24T03:07:02.927Z,99.90
2017-10-24T03:10:08.497Z,99.90
2017-10-24T03:13:13.254Z,99.90
2017-10-24T03:16:35.006Z,99.90
2017-10-24T03:19:40.423Z,99.90
2017-10-24T03:22:51.249Z,99.90
2017-10-24T03:25:56.694Z,99.90
2017-10-24T03:29:06.382Z,99.90
2017-10-24T03:32:22.068Z,99.90
2017-10-24T03:35:32.813Z,99.90
2017-10-24T03:38:39.477Z,99.90
2017-10-24T03:41:47.132Z,99.90
2017-10-24T03:44:52.765Z,99.90
2017-10-24T03:47:58.384Z,99.90
2017-10-24T03:51:04.972Z,99.90
2017-10-24T03:54:11.700Z,99.90
2017-10-24T03:57:22.608Z,99.90
2017-10-24T04:00:31.331Z,99.90
2017-10-24T04:03:36.100Z,99.90
2017-10-24T04:06:41.873Z,99.90
2017-10-24T04:09:47.464Z,99.90
2017-10-24T04:12:53.118Z,99.90
2017-10-24T04:16:17.032Z,99.90
2017-10-24T04:19:30.514Z,99.90
2017-10-24T04:22:43.256Z,99.90
2017-10-24T04:26:00.051Z,99.90
2017-10-24T04:29:05.529Z,99.90
2017-10-24T04:32:10.172Z,99.90
2017-10-24T04:35:15.927Z,99.90
2017-10-24T04:38:28.699Z,99.90
2017-10-24T04:41:35.366Z,99.90
2017-10-24T04:44:41.067Z,99.90
2017-10-24T04:47:46.819Z,99.90
2017-10-24T04:50:57.923Z,99.90
2017-10-24T04:54:11.143Z,99.90
2017-10-24T04:57:17.796Z,99.90
2017-10-24T05:00:29.368Z,99.90
2017-10-24T05:03:38.944Z,99.90
2017-10-24T05:07:01.709Z,99.90
2017-10-24T05:10:07.510Z,99.90
2017-10-24T05:13:17.064Z,99.90
2017-10-24T05:16:30.572Z,99.90
2017-10-24T05:19:40.325Z,99.90
2017-10-24T05:22:46.928Z,99.90
2017-10-24T05:25:52.668Z,99.90
2017-10-24T05:29:15.733Z,99.90
2017-10-24T05:32:20.297Z,99.90
2017-10-24T05:35:26.932Z,99.90
2017-10-24T05:38:31.622Z,99.90
2017-10-24T05:41:38.254Z,99.90
2017-10-24T05:44:53.092Z,99.90
2017-10-24T05:48:02.996Z,99.90
2017-10-24T05:51:07.971Z,99.90
2017-10-24T05:54:16.772Z,99.90
2017-10-24T05:57:26.436Z,99.90
2017-10-24T06:00:42.365Z,99.90
2017-10-24T06:04:05.380Z,99.90
2017-10-24T06:07:11.023Z,99.90
2017-10-24T06:10:21.893Z,99.90
2017-10-24T06:13:36.758Z,99.90
2017-10-24T06:16:44.369Z,99.90
2017-10-24T06:19:59.052Z,99.90
2017-10-24T06:23:10.543Z,99.90
2017-10-24T06:26:15.161Z,99.90
2017-10-24T06:29:20.065Z,99.90
2017-10-24T06:32:26.858Z,99.90
2017-10-24T06:35:43.429Z,99.90
2017-10-24T06:38:58.081Z,99.90
2017-10-24T06:42:11.696Z,99.90
2017-10-24T06:45:23.311Z,99.90
2017-10-24T06:48:30.943Z,99.90
2017-10-24T06:51:40.519Z,99.90
2017-10-24T06:54:50.464Z,99.90
2017-10-24T06:57:56.115Z,99.90
2017-10-24T07:01:03.762Z,99.90
2017-10-24T07:04:16.525Z,99.90
2017-10-24T07:07:28.194Z,99.90
2017-10-24T07:10:36.132Z,99.90
2017-10-24T07:13:43.659Z,99.90
2017-10-24T07:16:53.416Z,99.90
2017-10-24T07:20:06.360Z,99.90
2017-10-24T07:23:23.121Z,99.90
2017-10-24T07:26:34.878Z,99.90
2017-10-24T07:29:47.880Z,99.90
2017-10-24T07:32:57.646Z,99.90
2017-10-24T07:36:11.409Z,99.90
2017-10-24T07:39:16.213Z,99.90
2017-10-24T07:42:35.941Z,99.90
2017-10-24T07:45:40.604Z,99.90
2017-10-24T07:48:49.538Z,99.90
2017-10-24T07:52:03.425Z,99.90
2017-10-24T07:55:14.994Z,99.90
2017-10-24T07:58:20.672Z,99.90
2017-10-24T08:05:02.368Z,99.90
2017-10-24T08:08:08.237Z,99.90
2017-10-24T08:11:14.013Z,99.90
2017-10-24T08:14:20.564Z,99.90
2017-10-24T08:17:26.200Z,99.90
2017-10-24T08:20:37.745Z,99.90
2017-10-24T08:23:46.492Z,99.90
2017-10-24T08:26:52.254Z,99.90
2017-10-24T08:29:59.021Z,99.90
2017-10-24T08:33:09.628Z,99.90
2017-10-24T08:36:27.481Z,99.90
2017-10-24T08:39:32.139Z,99.90
2017-10-24T08:42:46.845Z,99.90
2017-10-24T08:45:59.579Z,99.90
2017-10-24T08:49:06.292Z,99.90
2017-10-24T08:52:33.276Z,99.90
2017-10-24T08:55:39.739Z,99.90
2017-10-24T08:58:48.792Z,99.90
2017-10-24T09:01:53.453Z,99.90
2017-10-24T09:04:59.260Z,99.90
2017-10-24T09:08:18.424Z,99.90
2017-10-24T09:11:43.777Z,99.90
2017-10-24T09:14:48.361Z,99.90
2017-10-24T09:17:56.207Z,99.90
2017-10-24T09:21:01.829Z,99.90
2017-10-24T09:24:12.632Z,99.90
2017-10-24T09:27:18.174Z,99.90
2017-10-24T09:30:35.829Z,99.90
2017-10-24T09:33:43.526Z,99.90
2017-10-24T09:36:55.172Z,99.90
2017-10-24T09:40:00.829Z,99.90
2017-10-24T09:43:06.616Z,99.90
2017-10-24T09:46:18.265Z,99.90
2017-10-24T09:49:35.933Z,99.90
2017-10-24T09:52:46.623Z,99.90
2017-10-24T09:56:13.648Z,99.90
2017-10-24T09:59:20.062Z,99.90
2017-10-24T10:02:27.989Z,99.90
2017-10-24T10:05:34.668Z,99.90
2017-10-24T10:08:40.441Z,99.90
2017-10-24T10:11:51.040Z,99.90
2017-10-24T10:14:56.640Z,99.90
2017-10-24T10:18:02.360Z,99.90
2017-10-24T10:21:21.069Z,99.90
2017-10-24T10:24:25.805Z,99.90
2017-10-24T10:27:31.704Z,99.90
2017-10-24T10:30:37.433Z,99.90
2017-10-24T10:33:45.221Z,99.90
2017-10-24T10:36:52.708Z,99.90
2017-10-24T10:39:59.465Z,99.90
2017-10-24T10:43:07.059Z,99.90
2017-10-24T10:46:19.629Z,99.90
2017-10-24T10:49:26.412Z,99.90
2017-10-24T10:52:32.912Z,99.90
2017-10-24T10:55:39.525Z,99.90
2017-10-24T10:58:46.253Z,99.90
2017-10-24T11:01:57.889Z,99.90
2017-10-24T11:05:02.501Z,99.90
2017-10-24T11:08:12.189Z,99.80
2017-10-24T11:11:17.675Z,99.20
2017-10-24T11:14:26.257Z,99.10
2017-10-24T11:17:33.874Z,99.20
2017-10-24T11:20:39.316Z,99.80
2017-10-24T11:23:50.792Z,99.90
2017-10-24T11:26:56.508Z,99.90
2017-10-24T11:30:11.079Z,99.90
2017-10-24T11:33:17.723Z,99.70
2017-10-24T11:36:30.108Z,99.90
2017-10-24T11:39:48.891Z,99.90
2017-10-24T11:42:53.653Z,99.90
2017-10-24T11:46:03.493Z,99.90
2017-10-24T11:49:11.522Z,99.90
2017-10-24T11:52:27.372Z,99.90
2017-10-24T11:55:33.977Z,99.90
2017-10-24T11:58:47.772Z,99.90
2017-10-24T12:01:53.679Z,99.90
2017-10-24T12:05:05.567Z,99.90
2017-10-24T12:08:28.440Z,99.90
2017-10-24T12:11:35.014Z,99.90
2017-10-24T12:14:41.712Z,99.90
2017-10-24T12:17:48.346Z,99.90
2017-10-24T12:20:55.889Z,99.90
2017-10-24T12:24:04.649Z,99.90
2017-10-24T12:27:09.421Z,99.90
2017-10-24T12:30:24.033Z,99.90
2017-10-24T12:33:31.752Z,99.90
2017-10-24T12:36:36.477Z,99.90
2017-10-24T12:39:48.220Z,99.90
2017-10-24T12:42:57.164Z,99.90
2017-10-24T12:46:18.965Z,99.90
2017-10-24T12:49:28.544Z,99.80
2017-10-24T12:52:52.333Z,99.80
2017-10-24T12:55:58.112Z,99.80
2017-10-24T12:59:03.920Z,99.90
2017-10-24T13:02:27.637Z,99.90
2017-10-24T13:05:46.248Z,99.90
2017-10-24T13:08:53.265Z,99.90
2017-10-24T13:11:58.497Z,99.90
2017-10-24T13:15:05.104Z,99.40
2017-10-24T13:21:54.184Z,98.80
2017-10-24T13:25:10.753Z,98.30
2017-10-24T13:28:18.252Z,98.30
2017-10-24T13:31:29.192Z,97.60
2017-10-24T13:34:42.034Z,98.20
2017-10-24T13:37:46.964Z,98.50
2017-10-24T13:40:51.784Z,97.70
2017-10-24T13:44:04.362Z,97.60
2017-10-24T13:47:17.070Z,98.00
2017-10-24T13:50:24.613Z,98.30
2017-10-24T13:53:32.380Z,98.30
2017-10-24T13:56:39.903Z,98.60
2017-10-24T13:59:45.691Z,98.80
2017-10-24T14:02:54.164Z,99.20
2017-10-24T14:06:13.879Z,99.10
2017-10-24T14:13:09.684Z,99.90
2017-10-24T14:16:21.132Z,99.90
2017-10-24T14:19:32.520Z,99.90
2017-10-24T14:22:37.345Z,99.90
2017-10-24T14:25:42.063Z,99.90
2017-10-24T14:28:47.714Z,99.90
2017-10-24T14:32:11.725Z,99.90
2017-10-24T14:35:18.557Z,99.90
2017-10-24T14:38:28.152Z,99.90
2017-10-24T14:41:42.934Z,99.90
2017-10-24T14:44:47.743Z,99.90
2017-10-24T14:47:53.240Z,99.90
2017-10-24T14:50:59.832Z,99.90
2017-10-24T14:54:08.371Z,99.90
2017-10-24T14:57:15.206Z,99.90
2017-10-24T15:00:34.017Z,99.50
2017-10-24T15:07:14.265Z,99.90
2017-10-24T15:10:23.117Z,99.90
2017-10-24T15:13:41.892Z,99.90
2017-10-24T15:16:53.564Z,99.90
2017-10-24T15:19:59.164Z,99.90
2017-10-24T15:23:10.632Z,99.90
2017-10-24T15:26:21.388Z,99.90
2017-10-24T15:29:27.082Z,99.90
2017-10-24T15:32:44.732Z,99.90
2017-10-24T15:35:51.562Z,99.90
2017-10-24T15:39:03.429Z,99.90
2017-10-24T15:42:11.223Z,99.90
2017-10-24T15:45:16.190Z,99.90
2017-10-24T15:48:29.058Z,99.90
2017-10-24T15:51:34.791Z,99.90
2017-10-24T15:54:40.665Z,99.90
2017-10-24T15:57:53.407Z,99.90
2017-10-24T16:00:59.031Z,99.90
2017-10-24T16:04:07.548Z,99.90
2017-10-24T16:07:13.201Z,99.90
2017-10-24T16:10:19.858Z,99.90
2017-10-24T16:13:32.625Z,99.90
2017-10-24T16:16:38.320Z,99.90
2017-10-24T16:19:43.948Z,99.90
2017-10-24T16:22:50.454Z,99.90
2017-10-24T16:25:56.031Z,99.90
2017-10-24T16:29:02.817Z,99.90
2017-10-24T16:32:09.428Z,99.90
2017-10-24T16:35:17.862Z,99.90
2017-10-24T16:38:22.464Z,99.90
2017-10-24T16:41:27.167Z,99.90
2017-10-24T16:44:31.872Z,99.90
2017-10-24T16:47:49.524Z,99.90
2017-10-24T16:50:57.220Z,99.90
2017-10-24T16:54:02.873Z,99.90
2017-10-24T16:57:08.448Z,99.90
2017-10-24T17:00:25.516Z,99.90
2017-10-24T17:03:32.160Z,99.90
2017-10-24T17:06:37.938Z,99.90
2017-10-24T17:09:44.357Z,99.90
2017-10-24T17:12:59.032Z,99.90
2017-10-24T17:16:05.716Z,99.90
2017-10-24T17:19:16.344Z,99.90
2017-10-24T17:26:15.852Z,99.90
2017-10-24T17:29:21.561Z,99.90
2017-10-24T17:32:27.252Z,99.90
2017-10-24T17:35:38.953Z,99.90
2017-10-24T17:38:43.554Z,99.90
2017-10-24T17:41:48.109Z,99.90
2017-10-24T17:44:55.881Z,99.90
2017-10-24T17:48:01.477Z,99.90
2017-10-24T17:51:07.144Z,99.90
2017-10-24T17:54:17.826Z,99.90
2017-10-24T17:57:24.367Z,99.90
2017-10-24T18:00:35.014Z,99.90
2017-10-24T18:03:41.557Z,99.90
2017-10-24T18:06:47.157Z,99.90
2017-10-24T18:09:52.832Z,99.90
2017-10-24T18:12:58.388Z,99.90
2017-10-24T18:16:15.977Z,99.90
2017-10-24T18:19:28.673Z,99.90
2017-10-24T18:22:45.334Z,99.90
2017-10-24T18:25:55.981Z,99.90
2017-10-24T18:29:02.580Z,99.90
2017-10-24T18:32:08.252Z,99.90
2017-10-24T18:35:20.835Z,99.90
2017-10-24T18:38:27.282Z,99.90
2017-10-24T18:41:45.981Z,99.90
2017-10-24T18:44:55.559Z,99.90
2017-10-24T18:48:00.992Z,99.90
2017-10-24T18:51:13.813Z,99.90
2017-10-24T18:54:20.429Z,99.90
2017-10-24T18:57:37.434Z,99.90
2017-10-24T19:00:47.904Z,99.90
2017-10-24T19:03:54.503Z,99.90
2017-10-24T19:07:02.229Z,99.90
2017-10-24T19:10:07.057Z,99.90
2017-10-24T19:13:12.584Z,99.90
2017-10-24T19:16:19.125Z,99.90
2017-10-24T19:19:24.711Z,99.90
2017-10-24T19:22:44.498Z,99.90
2017-10-24T19:25:52.201Z,99.90
2017-10-24T19:28:56.912Z,99.90
2017-10-24T19:32:02.612Z,99.90
2017-10-24T19:35:08.088Z,99.90
2017-10-24T19:38:14.655Z,99.90
2017-10-24T19:41:21.277Z,99.90
2017-10-24T19:44:27.237Z,99.90
2017-10-24T19:47:32.894Z,99.90
2017-10-24T19:50:47.580Z,99.90
2017-10-24T19:53:53.216Z,99.90
2017-10-24T19:57:01.930Z,99.90
2017-10-24T20:00:11.536Z,99.90
2017-10-24T20:03:37.332Z,99.90
2017-10-24T20:06:56.089Z,99.90
2017-10-24T20:10:01.801Z,99.90
2017-10-24T20:13:17.609Z,99.90
2017-10-24T20:16:23.236Z,99.90
2017-10-24T20:19:28.806Z,99.90
2017-10-24T20:22:34.099Z,99.90
2017-10-24T20:25:39.916Z,99.90
2017-10-24T20:28:46.704Z,99.90
2017-10-24T20:31:52.428Z,99.90
2017-10-24T20:34:57.749Z,99.90
2017-10-24T20:38:09.261Z,99.90
2017-10-24T20:41:20.840Z,99.90
2017-10-24T20:44:40.483Z,99.90
2017-10-24T20:47:45.252Z,99.90
2017-10-24T20:50:52.952Z,99.90
2017-10-24T20:54:05.474Z,99.90
2017-10-24T21:00:40.108Z,99.90
2017-10-24T21:03:50.608Z,99.90
2017-10-24T21:07:01.204Z,99.90
2017-10-24T21:10:06.810Z,99.90
2017-10-24T21:13:17.332Z,99.90
2017-10-24T21:16:22.893Z,99.90
2017-10-24T21:19:28.732Z,99.90
2017-10-24T21:22:44.226Z,99.90
2017-10-24T21:25:50.676Z,99.90
2017-10-24T21:29:07.256Z,99.90
2017-10-24T21:32:13.089Z,99.90
2017-10-24T21:35:20.694Z,99.90
2017-10-24T21:38:26.432Z,99.90
2017-10-24T21:41:32.051Z,99.90
2017-10-24T21:44:56.784Z,99.90
2017-10-24T21:48:01.374Z,99.90
2017-10-24T21:51:06.052Z,99.90
2017-10-24T21:54:15.560Z,99.90
2017-10-24T21:57:22.251Z,99.90
2017-10-24T22:00:28.195Z,99.90
2017-10-24T22:03:33.893Z,99.90
2017-10-24T22:06:43.505Z,99.90
2017-10-24T22:09:52.225Z,99.90
2017-10-24T22:13:13.769Z,99.90
2017-10-24T22:16:31.511Z,99.90
2017-10-24T22:19:42.084Z,99.90
2017-10-24T22:22:46.909Z,99.90
2017-10-24T22:25:51.663Z,99.90
2017-10-24T22:28:58.507Z,99.90
2017-10-24T22:32:03.076Z,99.90
2017-10-24T22:35:09.629Z,99.90
2017-10-24T22:38:15.156Z,99.90
2017-10-24T22:41:31.778Z,99.90
2017-10-24T22:44:41.572Z,99.90
2017-10-24T22:47:47.180Z,99.90
2017-10-24T22:50:59.748Z,99.90
2017-10-24T22:54:05.327Z,99.90
2017-10-24T22:57:10.070Z,99.90
2017-10-24T23:00:19.909Z,99.90
2017-10-24T23:03:31.568Z,99.90
2017-10-24T23:06:52.377Z,99.90
2017-10-24T23:09:57.167Z,99.90
2017-10-24T23:13:02.494Z,99.90
2017-10-24T23:16:12.124Z,99.90
2017-10-24T23:19:28.881Z,99.90
2017-10-24T23:22:37.701Z,99.90
2017-10-24T23:25:55.333Z,99.90
2017-10-24T23:29:01.950Z,99.90
2017-10-24T23:32:07.724Z,99.90
2017-10-24T23:35:12.483Z,99.90
2017-10-24T23:38:17.206Z,99.90
2017-10-24T23:41:22.998Z,99.90
2017-10-24T23:44:30.711Z,99.90
2017-10-24T23:47:35.428Z,99.90
2017-10-24T23:50:42.229Z,99.90
2017-10-24T23:53:50.853Z,99.90
2017-10-24T23:56:57.583Z,99.90
